sensor_id;sensor_type;location;lat;lon;timestamp;temperature;humidity
26035;DHT22;13809;48.632;11.576;2023-12-20T00:01:45;7.90;44.10
26035;DHT22;13809;48.632;11.576;2023-12-20T00:06:48;8.00;43.80
26035;DHT22;13809;48.632;11.576;2023-12-20T00:11:52;8.10;43.80
26035;DHT22;13809;48.632;11.576;2023-12-20T00:16:56;8.30;43.60
26035;DHT22;13809;48.632;11.576;2023-12-20T00:21:59;8.40;43.40
26035;DHT22;13809;48.632;11.576;2023-12-20T00:27:03;8.50;43.60
26035;DHT22;13809;48.632;11.576;2023-12-20T00:32:08;8.60;43.40
26035;DHT22;13809;48.632;11.576;2023-12-20T00:37:11;8.60;43.00
26035;DHT22;13809;48.632;11.576;2023-12-20T00:42:16;8.70;43.20
26035;DHT22;13809;48.632;11.576;2023-12-20T00:47:20;8.80;43.10
26035;DHT22;13809;48.632;11.576;2023-12-20T00:52:24;8.90;42.70
26035;DHT22;13809;48.632;11.576;2023-12-20T00:57:27;9.00;43.10
26035;DHT22;13809;48.632;11.576;2023-12-20T01:02:31;9.00;43.00
26035;DHT22;13809;48.632;11.576;2023-12-20T01:07:35;9.10;42.60
26035;DHT22;13809;48.632;11.576;2023-12-20T01:12:38;9.10;42.90
26035;DHT22;13809;48.632;11.576;2023-12-20T01:17:42;9.20;42.80
26035;DHT22;13809;48.632;11.576;2023-12-20T01:22:46;9.20;42.10
26035;DHT22;13809;48.632;11.576;2023-12-20T01:27:50;9.30;42.60
26035;DHT22;13809;48.632;11.576;2023-12-20T01:32:54;9.30;42.40
26035;DHT22;13809;48.632;11.576;2023-12-20T01:37:58;9.40;42.00
26035;DHT22;13809;48.632;11.576;2023-12-20T01:43:02;9.50;42.30
26035;DHT22;13809;48.632;11.576;2023-12-20T01:48:08;9.60;42.00
26035;DHT22;13809;48.632;11.576;2023-12-20T01:53:13;9.60;41.30
26035;DHT22;13809;48.632;11.576;2023-12-20T01:58:17;9.70;41.90
26035;DHT22;13809;48.632;11.576;2023-12-20T02:03:23;9.70;42.60
26035;DHT22;13809;48.632;11.576;2023-12-20T02:08:27;9.70;41.50
26035;DHT22;13809;48.632;11.576;2023-12-20T02:13:30;9.80;41.90
26035;DHT22;13809;48.632;11.576;2023-12-20T02:18:35;9.80;41.50
26035;DHT22;13809;48.632;11.576;2023-12-20T02:23:40;9.80;40.70
26035;DHT22;13809;48.632;11.576;2023-12-20T02:28:43;9.80;40.70
26035;DHT22;13809;48.632;11.576;2023-12-20T02:33:46;9.90;41.00
26035;DHT22;13809;48.632;11.576;2023-12-20T02:38:51;9.90;41.00
26035;DHT22;13809;48.632;11.576;2023-12-20T02:43:54;9.80;40.70
26035;DHT22;13809;48.632;11.576;2023-12-20T02:48:57;9.80;40.80
26035;DHT22;13809;48.632;11.576;2023-12-20T02:54:02;9.80;40.80
26035;DHT22;13809;48.632;11.576;2023-12-20T02:59:05;9.80;40.70
26035;DHT22;13809;48.632;11.576;2023-12-20T03:04:10;9.80;41.20
26035;DHT22;13809;48.632;11.576;2023-12-20T03:09:15;9.70;41.40
26035;DHT22;13809;48.632;11.576;2023-12-20T03:14:18;9.70;41.50
26035;DHT22;13809;48.632;11.576;2023-12-20T03:19:22;9.70;41.90
26035;DHT22;13809;48.632;11.576;2023-12-20T03:24:27;9.60;41.90
26035;DHT22;13809;48.632;11.576;2023-12-20T03:29:30;9.60;42.20
26035;DHT22;13809;48.632;11.576;2023-12-20T03:34:33;9.50;42.50
26035;DHT22;13809;48.632;11.576;2023-12-20T03:39:38;9.40;42.60
26035;DHT22;13809;48.632;11.576;2023-12-20T03:44:41;9.30;42.80
26035;DHT22;13809;48.632;11.576;2023-12-20T03:49:44;9.30;43.20
26035;DHT22;13809;48.632;11.576;2023-12-20T03:54:49;9.30;43.10
26035;DHT22;13809;48.632;11.576;2023-12-20T03:59:52;9.20;43.40
26035;DHT22;13809;48.632;11.576;2023-12-20T04:04:55;9.20;43.50
26035;DHT22;13809;48.632;11.576;2023-12-20T04:10:00;9.10;43.60
26035;DHT22;13809;48.632;11.576;2023-12-20T04:15:04;9.10;43.80
26035;DHT22;13809;48.632;11.576;2023-12-20T04:20:11;9.00;43.80
26035;DHT22;13809;48.632;11.576;2023-12-20T04:25:16;9.00;43.90
26035;DHT22;13809;48.632;11.576;2023-12-20T04:30:19;8.90;44.10
26035;DHT22;13809;48.632;11.576;2023-12-20T04:35:22;8.90;44.10
26035;DHT22;13809;48.632;11.576;2023-12-20T04:40:27;8.90;44.20
26035;DHT22;13809;48.632;11.576;2023-12-20T04:45:30;8.80;44.40
26035;DHT22;13809;48.632;11.576;2023-12-20T04:50:33;8.80;44.30
26035;DHT22;13809;48.632;11.576;2023-12-20T04:55:38;8.70;44.50
26035;DHT22;13809;48.632;11.576;2023-12-20T05:00:42;8.60;44.80
26035;DHT22;13809;48.632;11.576;2023-12-20T05:05:45;8.60;44.80
26035;DHT22;13809;48.632;11.576;2023-12-20T05:10:50;8.60;44.80
26035;DHT22;13809;48.632;11.576;2023-12-20T05:15:53;8.50;45.00
26035;DHT22;13809;48.632;11.576;2023-12-20T05:20:56;8.50;44.80
26035;DHT22;13809;48.632;11.576;2023-12-20T05:26:02;8.50;44.90
26035;DHT22;13809;48.632;11.576;2023-12-20T05:31:05;8.50;45.30
26035;DHT22;13809;48.632;11.576;2023-12-20T05:36:09;8.40;45.20
26035;DHT22;13809;48.632;11.576;2023-12-20T05:41:16;8.40;45.30
26035;DHT22;13809;48.632;11.576;2023-12-20T05:46:19;8.40;45.50
26035;DHT22;13809;48.632;11.576;2023-12-20T05:51:23;8.40;45.50
26035;DHT22;13809;48.632;11.576;2023-12-20T05:56:27;8.40;45.50
26035;DHT22;13809;48.632;11.576;2023-12-20T06:01:31;8.40;45.70
26035;DHT22;13809;48.632;11.576;2023-12-20T06:06:34;8.30;45.50
26035;DHT22;13809;48.632;11.576;2023-12-20T06:11:39;8.30;45.80
26035;DHT22;13809;48.632;11.576;2023-12-20T06:16:42;8.30;46.00
26035;DHT22;13809;48.632;11.576;2023-12-20T06:21:47;8.30;45.90
26035;DHT22;13809;48.632;11.576;2023-12-20T06:26:51;8.30;46.00
26035;DHT22;13809;48.632;11.576;2023-12-20T06:31:55;8.30;46.20
26035;DHT22;13809;48.632;11.576;2023-12-20T06:36:58;8.30;46.10
26035;DHT22;13809;48.632;11.576;2023-12-20T06:42:03;8.40;46.20
26035;DHT22;13809;48.632;11.576;2023-12-20T06:47:07;8.30;46.50
26035;DHT22;13809;48.632;11.576;2023-12-20T06:52:10;8.30;46.30
26035;DHT22;13809;48.632;11.576;2023-12-20T06:57:15;8.40;46.20
26035;DHT22;13809;48.632;11.576;2023-12-20T07:02:18;8.40;46.30
26035;DHT22;13809;48.632;11.576;2023-12-20T07:07:22;8.40;46.10
26035;DHT22;13809;48.632;11.576;2023-12-20T07:12:27;8.40;46.20
26035;DHT22;13809;48.632;11.576;2023-12-20T07:17:31;8.50;46.60
26035;DHT22;13809;48.632;11.576;2023-12-20T07:22:35;8.50;46.20
26035;DHT22;13809;48.632;11.576;2023-12-20T07:27:39;8.50;46.50
26035;DHT22;13809;48.632;11.576;2023-12-20T07:32:46;8.40;46.70
26035;DHT22;13809;48.632;11.576;2023-12-20T07:37:49;8.40;46.50
26035;DHT22;13809;48.632;11.576;2023-12-20T07:42:53;8.40;46.70
26035;DHT22;13809;48.632;11.576;2023-12-20T07:47:57;8.50;46.90
26035;DHT22;13809;48.632;11.576;2023-12-20T07:53:00;8.50;46.70
26035;DHT22;13809;48.632;11.576;2023-12-20T07:58:05;8.50;46.80
26035;DHT22;13809;48.632;11.576;2023-12-20T08:03:08;8.50;46.90
26035;DHT22;13809;48.632;11.576;2023-12-20T08:08:11;8.60;46.70
26035;DHT22;13809;48.632;11.576;2023-12-20T08:13:16;8.60;46.70
26035;DHT22;13809;48.632;11.576;2023-12-20T08:18:20;8.60;46.90
26035;DHT22;13809;48.632;11.576;2023-12-20T08:23:23;8.60;46.70
26035;DHT22;13809;48.632;11.576;2023-12-20T08:28:30;8.60;46.60
26035;DHT22;13809;48.632;11.576;2023-12-20T08:33:33;8.60;47.00
26035;DHT22;13809;48.632;11.576;2023-12-20T08:38:36;8.60;46.80
26035;DHT22;13809;48.632;11.576;2023-12-20T08:43:41;8.60;46.90
26035;DHT22;13809;48.632;11.576;2023-12-20T08:48:44;8.60;47.60
26035;DHT22;13809;48.632;11.576;2023-12-20T08:53:48;8.60;47.00
26035;DHT22;13809;48.632;11.576;2023-12-20T08:58:52;8.60;47.00
26035;DHT22;13809;48.632;11.576;2023-12-20T09:03:55;8.60;47.40
26035;DHT22;13809;48.632;11.576;2023-12-20T09:08:59;8.60;47.10
26035;DHT22;13809;48.632;11.576;2023-12-20T09:14:03;8.60;47.20
26035;DHT22;13809;48.632;11.576;2023-12-20T09:19:06;8.70;47.60
26035;DHT22;13809;48.632;11.576;2023-12-20T09:24:10;8.70;47.30
26035;DHT22;13809;48.632;11.576;2023-12-20T09:29:14;8.70;47.20
26035;DHT22;13809;48.632;11.576;2023-12-20T09:34:18;8.70;47.60
26035;DHT22;13809;48.632;11.576;2023-12-20T09:39:21;8.80;47.40
26035;DHT22;13809;48.632;11.576;2023-12-20T09:44:26;8.80;47.60
26035;DHT22;13809;48.632;11.576;2023-12-20T09:49:30;8.90;47.70
26035;DHT22;13809;48.632;11.576;2023-12-20T09:54:33;8.90;47.60
26035;DHT22;13809;48.632;11.576;2023-12-20T09:59:38;9.00;47.60
26035;DHT22;13809;48.632;11.576;2023-12-20T10:04:47;9.00;47.80
26035;DHT22;13809;48.632;11.576;2023-12-20T10:09:52;9.00;48.00
26035;DHT22;13809;48.632;11.576;2023-12-20T10:14:59;9.10;47.80
26035;DHT22;13809;48.632;11.576;2023-12-20T10:20:04;9.10;48.10
26035;DHT22;13809;48.632;11.576;2023-12-20T10:25:12;9.10;47.80
26035;DHT22;13809;48.632;11.576;2023-12-20T10:30:17;9.10;47.70
26035;DHT22;13809;48.632;11.576;2023-12-20T10:35:20;9.20;48.00
26035;DHT22;13809;48.632;11.576;2023-12-20T10:40:25;9.30;47.70
26035;DHT22;13809;48.632;11.576;2023-12-20T10:45:33;9.40;47.90
26035;DHT22;13809;48.632;11.576;2023-12-20T10:50:36;9.50;47.80
26035;DHT22;13809;48.632;11.576;2023-12-20T10:55:42;9.50;47.50
26035;DHT22;13809;48.632;11.576;2023-12-20T11:00:48;9.60;47.50
26035;DHT22;13809;48.632;11.576;2023-12-20T11:05:58;9.60;47.50
26035;DHT22;13809;48.632;11.576;2023-12-20T11:11:07;9.60;47.30
26035;DHT22;13809;48.632;11.576;2023-12-20T11:16:14;9.70;47.50
26035;DHT22;13809;48.632;11.576;2023-12-20T11:21:17;9.70;47.30
26035;DHT22;13809;48.632;11.576;2023-12-20T11:26:26;9.70;47.20
26035;DHT22;13809;48.632;11.576;2023-12-20T11:31:40;9.80;47.10
26035;DHT22;13809;48.632;11.576;2023-12-20T11:36:43;9.80;46.70
26035;DHT22;13809;48.632;11.576;2023-12-20T11:41:47;9.80;46.70
26035;DHT22;13809;48.632;11.576;2023-12-20T11:46:54;9.70;46.60
26035;DHT22;13809;48.632;11.576;2023-12-20T11:51:57;9.80;46.60
26035;DHT22;13809;48.632;11.576;2023-12-20T11:57:02;9.80;46.50
26035;DHT22;13809;48.632;11.576;2023-12-20T12:02:07;9.80;46.10
26035;DHT22;13809;48.632;11.576;2023-12-20T12:07:10;9.80;44.20
26035;DHT22;13809;48.632;11.576;2023-12-20T12:12:14;9.80;44.50
26035;DHT22;13809;48.632;11.576;2023-12-20T12:17:19;9.80;44.80
26035;DHT22;13809;48.632;11.576;2023-12-20T12:22:22;9.80;43.80
26035;DHT22;13809;48.632;11.576;2023-12-20T12:27:28;9.80;44.20
26035;DHT22;13809;48.632;11.576;2023-12-20T12:32:33;9.90;44.40
26035;DHT22;13809;48.632;11.576;2023-12-20T12:37:38;9.90;44.30
26035;DHT22;13809;48.632;11.576;2023-12-20T12:42:44;10.10;43.00
26035;DHT22;13809;48.632;11.576;2023-12-20T12:47:49;10.10;41.70
26035;DHT22;13809;48.632;11.576;2023-12-20T12:52:52;10.00;40.90
26035;DHT22;13809;48.632;11.576;2023-12-20T12:57:55;10.00;41.70
26035;DHT22;13809;48.632;11.576;2023-12-20T13:03:00;10.00;41.40
26035;DHT22;13809;48.632;11.576;2023-12-20T13:08:04;9.90;41.80
26035;DHT22;13809;48.632;11.576;2023-12-20T13:13:07;9.90;41.70
26035;DHT22;13809;48.632;11.576;2023-12-20T13:18:12;9.80;41.70
26035;DHT22;13809;48.632;11.576;2023-12-20T13:23:15;9.80;41.50
26035;DHT22;13809;48.632;11.576;2023-12-20T13:28:20;9.80;41.20
26035;DHT22;13809;48.632;11.576;2023-12-20T13:33:24;9.70;41.10
26035;DHT22;13809;48.632;11.576;2023-12-20T13:38:27;9.70;40.60
26035;DHT22;13809;48.632;11.576;2023-12-20T13:43:31;9.60;41.20
26035;DHT22;13809;48.632;11.576;2023-12-20T13:48:36;9.60;41.80
26035;DHT22;13809;48.632;11.576;2023-12-20T13:53:39;9.60;41.80
26035;DHT22;13809;48.632;11.576;2023-12-20T13:58:42;9.60;41.50
26035;DHT22;13809;48.632;11.576;2023-12-20T14:03:50;9.60;41.70
26035;DHT22;13809;48.632;11.576;2023-12-20T14:08:53;9.60;40.90
26035;DHT22;13809;48.632;11.576;2023-12-20T14:13:57;9.50;40.50
26035;DHT22;13809;48.632;11.576;2023-12-20T14:19:01;9.50;40.50
26035;DHT22;13809;48.632;11.576;2023-12-20T14:24:06;9.40;40.40
26035;DHT22;13809;48.632;11.576;2023-12-20T14:29:09;9.40;40.40
26035;DHT22;13809;48.632;11.576;2023-12-20T14:34:14;9.30;40.30
26035;DHT22;13809;48.632;11.576;2023-12-20T14:39:17;9.20;39.20
26035;DHT22;13809;48.632;11.576;2023-12-20T14:44:20;9.20;40.20
26035;DHT22;13809;48.632;11.576;2023-12-20T14:49:25;9.10;40.10
26035;DHT22;13809;48.632;11.576;2023-12-20T14:54:28;9.10;39.70
26035;DHT22;13809;48.632;11.576;2023-12-20T14:59:31;9.10;40.10
26035;DHT22;13809;48.632;11.576;2023-12-20T15:04:36;9.00;40.80
26035;DHT22;13809;48.632;11.576;2023-12-20T15:09:40;9.00;39.90
26035;DHT22;13809;48.632;11.576;2023-12-20T15:14:47;9.00;40.10
26035;DHT22;13809;48.632;11.576;2023-12-20T15:19:52;8.90;40.00
26035;DHT22;13809;48.632;11.576;2023-12-20T15:24:55;8.90;40.00
26035;DHT22;13809;48.632;11.576;2023-12-20T15:29:59;8.80;39.90
26035;DHT22;13809;48.632;11.576;2023-12-20T15:35:05;8.70;39.90
26035;DHT22;13809;48.632;11.576;2023-12-20T15:40:09;8.70;39.80
26035;DHT22;13809;48.632;11.576;2023-12-20T15:45:14;8.70;40.20
26035;DHT22;13809;48.632;11.576;2023-12-20T15:50:18;8.60;40.30
26035;DHT22;13809;48.632;11.576;2023-12-20T15:55:22;8.60;40.10
26035;DHT22;13809;48.632;11.576;2023-12-20T16:00:25;8.50;40.50
26035;DHT22;13809;48.632;11.576;2023-12-20T16:05:30;8.50;40.80
26035;DHT22;13809;48.632;11.576;2023-12-20T16:10:33;8.40;40.70
26035;DHT22;13809;48.632;11.576;2023-12-20T16:15:37;8.50;40.90
26035;DHT22;13809;48.632;11.576;2023-12-20T16:20:41;8.50;40.80
26035;DHT22;13809;48.632;11.576;2023-12-20T16:25:45;8.40;40.50
26035;DHT22;13809;48.632;11.576;2023-12-20T16:30:48;8.40;40.80
26035;DHT22;13809;48.632;11.576;2023-12-20T16:35:55;8.40;40.80
26035;DHT22;13809;48.632;11.576;2023-12-20T16:40:59;8.40;40.50
26035;DHT22;13809;48.632;11.576;2023-12-20T16:46:03;8.30;40.90
26035;DHT22;13809;48.632;11.576;2023-12-20T16:51:09;8.20;41.00
26035;DHT22;13809;48.632;11.576;2023-12-20T16:56:12;8.20;40.90
26035;DHT22;13809;48.632;11.576;2023-12-20T17:01:15;8.10;41.10
26035;DHT22;13809;48.632;11.576;2023-12-20T17:06:20;8.10;41.10
26035;DHT22;13809;48.632;11.576;2023-12-20T17:11:25;8.10;40.90
26035;DHT22;13809;48.632;11.576;2023-12-20T17:16:28;8.10;41.20
26035;DHT22;13809;48.632;11.576;2023-12-20T17:21:33;8.10;41.20
26035;DHT22;13809;48.632;11.576;2023-12-20T17:26:36;8.10;40.90
26035;DHT22;13809;48.632;11.576;2023-12-20T17:31:39;8.20;40.90
26035;DHT22;13809;48.632;11.576;2023-12-20T17:36:45;8.10;40.80
26035;DHT22;13809;48.632;11.576;2023-12-20T17:41:49;8.10;40.60
26035;DHT22;13809;48.632;11.576;2023-12-20T17:46:52;8.00;40.90
26035;DHT22;13809;48.632;11.576;2023-12-20T17:51:58;8.00;40.90
26035;DHT22;13809;48.632;11.576;2023-12-20T17:57:01;8.00;41.00
26035;DHT22;13809;48.632;11.576;2023-12-20T18:02:04;7.90;41.10
26035;DHT22;13809;48.632;11.576;2023-12-20T18:07:09;7.90;41.20
26035;DHT22;13809;48.632;11.576;2023-12-20T18:12:13;7.90;41.00
26035;DHT22;13809;48.632;11.576;2023-12-20T18:17:16;8.00;41.30
26035;DHT22;13809;48.632;11.576;2023-12-20T18:22:21;8.00;41.30
26035;DHT22;13809;48.632;11.576;2023-12-20T18:27:24;8.00;41.20
26035;DHT22;13809;48.632;11.576;2023-12-20T18:32:28;8.00;41.30
26035;DHT22;13809;48.632;11.576;2023-12-20T18:37:33;8.00;41.50
26035;DHT22;13809;48.632;11.576;2023-12-20T18:42:37;8.00;41.40
26035;DHT22;13809;48.632;11.576;2023-12-20T18:47:40;8.00;41.30
26035;DHT22;13809;48.632;11.576;2023-12-20T18:52:45;8.00;41.50
26035;DHT22;13809;48.632;11.576;2023-12-20T18:57:48;8.00;41.30
26035;DHT22;13809;48.632;11.576;2023-12-20T19:02:51;8.00;41.30
26035;DHT22;13809;48.632;11.576;2023-12-20T19:07:57;8.00;41.30
26035;DHT22;13809;48.632;11.576;2023-12-20T19:13:00;8.10;41.20
26035;DHT22;13809;48.632;11.576;2023-12-20T19:18:04;8.10;41.30
26035;DHT22;13809;48.632;11.576;2023-12-20T19:23:09;8.10;41.10
26035;DHT22;13809;48.632;11.576;2023-12-20T19:28:12;8.20;41.10
26035;DHT22;13809;48.632;11.576;2023-12-20T19:33:15;8.20;41.10
26035;DHT22;13809;48.632;11.576;2023-12-20T19:38:20;8.30;41.10
26035;DHT22;13809;48.632;11.576;2023-12-20T19:43:23;8.30;40.70
26035;DHT22;13809;48.632;11.576;2023-12-20T19:48:27;8.30;40.90
26035;DHT22;13809;48.632;11.576;2023-12-20T19:53:31;8.30;40.60
26035;DHT22;13809;48.632;11.576;2023-12-20T19:58:35;8.30;40.50
26035;DHT22;13809;48.632;11.576;2023-12-20T20:03:38;8.40;40.80
26035;DHT22;13809;48.632;11.576;2023-12-20T20:08:43;8.40;40.60
26035;DHT22;13809;48.632;11.576;2023-12-20T20:13:46;8.30;40.50
26035;DHT22;13809;48.632;11.576;2023-12-20T20:18:49;8.30;40.60
26035;DHT22;13809;48.632;11.576;2023-12-20T20:23:55;8.40;40.40
26035;DHT22;13809;48.632;11.576;2023-12-20T20:28:58;8.40;40.00
26035;DHT22;13809;48.632;11.576;2023-12-20T20:34:01;8.30;40.50
26035;DHT22;13809;48.632;11.576;2023-12-20T20:39:06;8.30;40.70
26035;DHT22;13809;48.632;11.576;2023-12-20T20:44:09;8.30;40.60
26035;DHT22;13809;48.632;11.576;2023-12-20T20:49:12;8.20;40.90
26035;DHT22;13809;48.632;11.576;2023-12-20T20:54:19;8.20;41.00
26035;DHT22;13809;48.632;11.576;2023-12-20T20:59:22;8.20;41.00
26035;DHT22;13809;48.632;11.576;2023-12-20T21:04:26;8.20;41.20
26035;DHT22;13809;48.632;11.576;2023-12-20T21:09:31;8.20;40.90
26035;DHT22;13809;48.632;11.576;2023-12-20T21:14:34;8.10;40.80
26035;DHT22;13809;48.632;11.576;2023-12-20T21:19:38;8.10;41.10
26035;DHT22;13809;48.632;11.576;2023-12-20T21:24:43;8.10;41.30
26035;DHT22;13809;48.632;11.576;2023-12-20T21:29:46;8.00;41.30
26035;DHT22;13809;48.632;11.576;2023-12-20T21:34:49;8.00;41.30
26035;DHT22;13809;48.632;11.576;2023-12-20T21:39:54;8.00;41.30
26035;DHT22;13809;48.632;11.576;2023-12-20T21:44:57;8.00;41.20
26035;DHT22;13809;48.632;11.576;2023-12-20T21:50:00;8.10;41.30
26035;DHT22;13809;48.632;11.576;2023-12-20T21:55:06;8.10;41.10
26035;DHT22;13809;48.632;11.576;2023-12-20T22:00:11;8.10;40.90
26035;DHT22;13809;48.632;11.576;2023-12-20T22:05:14;8.10;41.20
26035;DHT22;13809;48.632;11.576;2023-12-20T22:10:20;8.00;41.10
26035;DHT22;13809;48.632;11.576;2023-12-20T22:15:23;8.00;40.90
26035;DHT22;13809;48.632;11.576;2023-12-20T22:20:27;8.10;41.10
26035;DHT22;13809;48.632;11.576;2023-12-20T22:25:32;8.10;41.10
26035;DHT22;13809;48.632;11.576;2023-12-20T22:30:36;8.10;41.10
26035;DHT22;13809;48.632;11.576;2023-12-20T22:35:39;8.10;41.10
26035;DHT22;13809;48.632;11.576;2023-12-20T22:40:46;8.10;41.00
26035;DHT22;13809;48.632;11.576;2023-12-20T22:45:49;8.10;41.00
26035;DHT22;13809;48.632;11.576;2023-12-20T22:50:53;8.10;41.10
26035;DHT22;13809;48.632;11.576;2023-12-20T22:55:58;8.20;41.20
26035;DHT22;13809;48.632;11.576;2023-12-20T23:01:01;8.20;41.00
26035;DHT22;13809;48.632;11.576;2023-12-20T23:06:05;8.20;41.10
26035;DHT22;13809;48.632;11.576;2023-12-20T23:11:10;8.20;41.10
26035;DHT22;13809;48.632;11.576;2023-12-20T23:16:13;8.20;41.00
26035;DHT22;13809;48.632;11.576;2023-12-20T23:21:16;8.20;41.10
26035;DHT22;13809;48.632;11.576;2023-12-20T23:26:21;8.20;40.90
26035;DHT22;13809;48.632;11.576;2023-12-20T23:31:24;8.30;41.60
26035;DHT22;13809;48.632;11.576;2023-12-20T23:36:28;8.20;40.90
26035;DHT22;13809;48.632;11.576;2023-12-20T23:41:32;8.30;41.10
26035;DHT22;13809;48.632;11.576;2023-12-20T23:46:35;8.30;40.90
26035;DHT22;13809;48.632;11.576;2023-12-20T23:51:38;8.30;41.10
26035;DHT22;13809;48.632;11.576;2023-12-20T23:56:46;8.30;40.90
